Latest Weather Observations for Samuel Hill

IDQ60801

Issued at 10:32 pm EST Wednesday 16 August 2017 (issued every 30 minutes, with the page automatically refreshed every 10 minutes)

About weather observations | Map of weather stations | Latest weather observations for QLD | Other Formats
Station Details ID: 033308 Name: SAMUEL HILL AERO Lat: -22.74 Lon: 150.66 Height: 31.0 m
Data from the previous 72 hours. | See also: Recent months at Samuel Hill
Date/Time
EST
Temp
°C
App
Temp
°C
Dew
Point
°C
Rel
Hum
%
Delta-T
°C
Wind Press
QNH
hPa
Press
MSL
hPa
Rain since
9am
mm
Dir  Spd
km/h
Gust
km/h
Spd
kts
Gust
kts
16/10:30pm 13.5 14.2 12.1 91 0.8 CALM 0 0 0 0 1016.0 1015.9 0.2
16/10:00pm 13.8 14.5 12.2 90 0.9 CALM 0 0 0 0 1016.1 1016.0 0.2
16/09:30pm 14.5 15.3 12.7 89 1.0 CALM 0 0 0 0 1016.1 1016.0 0.2
16/09:00pm 14.9 15.8 12.9 88 1.1 CALM 0 6 0 3 1015.9 1015.8 0.2
16/08:30pm 16.6 16.9 15.0 90 0.9 N 7 11 4 6 1015.7 1015.6 0.2
16/08:00pm 16.5 17.4 14.0 85 1.4 NE 2 6 1 3 1015.7 1015.6 0.2
16/07:30pm 17.9 18.1 14.8 82 1.8 N 7 7 4 4 1015.4 1015.3 0.2
16/07:00pm 19.5 20.0 16.5 83 1.8 N 9 11 5 6 1015.2 1015.1 0.2
16/06:30pm 20.2 20.7 16.6 80 2.2 NNW 9 11 5 6 1014.8 1014.7 0.2
16/06:00pm 21.0 21.4 16.4 75 2.8 N 9 15 5 8 1014.4 1014.3 0.2
16/05:30pm 22.1 21.4 16.4 70 3.5 N 15 20 8 11 1014.1 1014.0 0.2
16/05:00pm 23.1 21.9 16.2 65 4.2 N 17 24 9 13 1014.0 1013.9 0.2
16/04:30pm 24.1 23.0 16.4 62 4.7 N 17 24 9 13 1013.9 1013.8 0.2
16/04:00pm 24.6 23.0 16.1 59 5.2 N 19 26 10 14 1013.7 1013.6 0.2
16/03:30pm 25.0 23.2 15.9 57 5.5 N 20 28 11 15 1013.7 1013.6 0.2
16/03:00pm 26.1 25.9 16.6 55 5.9 NNW 13 24 7 13 1013.9 1013.8 0.2
16/02:30pm 25.9 24.9 16.5 56 5.8 N 17 24 9 13 1014.0 1013.9 0.2
16/02:00pm 24.8 23.1 15.7 57 5.5 N 19 30 10 16 1014.3 1014.2 0.2
16/01:30pm 26.5 25.5 16.7 55 6.1 NNW 17 24 9 13 1014.6 1014.5 0.2
16/01:00pm 25.6 24.4 16.2 56 5.8 N 17 24 9 13 1015.1 1015.0 0.2
16/12:30pm 25.6 24.6 16.5 57 5.6 NNW 17 24 9 13 1015.6 1015.5 0.2
16/12:00pm 25.2 24.8 16.1 57 5.6 N 13 26 7 14 1016.2 1016.1 0.2
16/11:30am 26.2 25.7 17.0 57 5.7 NNW 15 24 8 13 1016.6 1016.5 0.2
16/11:00am 25.3 24.8 15.9 56 5.7 N 13 24 7 13 1017.1 1017.0 0.2
16/10:30am 25.1 24.4 16.3 58 5.4 NNW 15 22 8 12 1017.6 1017.5 0.0
16/10:00am 24.7 24.6 16.9 62 4.8 N 13 20 7 11 1018.1 1018.0 0.0
16/09:30am 22.3 22.1 16.6 70 3.5 N 13 20 7 11 1018.3 1018.3 0.0
16/09:00am 21.6 23.6 18.8 84 1.8 N 6 9 3 5 1018.3 1018.3 0.0
16/08:30am 18.9 22.0 18.7 99 0.1 CALM 0 0 0 0 1018.2 1018.1 0.0
16/08:28am 18.7 21.7 18.5 99 0.1 CALM 0 0 0 0 1018.2 1018.1 0.0
16/08:00am 16.1 18.0 15.8 98 0.2 CALM 0 0 0 0 1017.9 1017.8 0.0
16/07:30am 13.8 14.8 13.2 96 0.3 CALM 0 0 0 0 1017.5 1017.4 0.0
16/07:00am 12.3 12.8 11.5 95 0.4 CALM 0 0 0 0 1017.1 1017.0 0.0
16/06:30am 11.6 11.8 10.7 94 0.5 CALM 0 0 0 0 1016.7 1016.6 0.0
16/06:01am 11.4 11.6 10.5 94 0.5 CALM 0 0 0 0 1016.3 1016.2 0.0
16/06:00am 11.4 11.6 10.5 94 0.5 CALM 0 0 0 0 1016.3 1016.2 0.0
16/05:30am 11.6 11.8 10.7 94 0.5 CALM 0 0 0 0 1015.8 1015.7 0.0
16/05:10am 12.3 12.8 11.5 95 0.4 CALM 0 0 0 0 1015.5 1015.4 0.0
16/05:00am 12.3 12.8 11.5 95 0.4 CALM 0 0 0 0 1015.4 1015.3 0.0
16/04:30am 12.7 13.3 11.9 95 0.4 CALM 0 0 0 0 1015.3 1015.2 0.0
16/04:09am 12.8 13.4 12.0 95 0.4 CALM 0 0 0 0 1015.2 1015.1 0.0
16/04:00am 12.8 13.4 12.0 95 0.4 CALM 0 0 0 0 1015.1 1015.0 0.0
16/03:49am 13.0 13.7 12.2 95 0.4 CALM 0 0 0 0 1015.2 1015.1 0.0
16/03:30am 13.0 13.7 12.2 95 0.4 CALM 0 0 0 0 1015.2 1015.1 0.0
16/03:00am 13.1 13.8 12.3 95 0.4 CALM 0 0 0 0 1015.4 1015.3 0.0
16/02:30am 12.9 13.6 12.1 95 0.4 CALM 0 0 0 0 1015.4 1015.3 0.0
16/02:26am 12.9 13.6 12.1 95 0.4 CALM 0 0 0 0 1015.5 1015.4 0.0
16/02:18am 13.1 13.8 12.3 95 0.4 CALM 0 0 0 0 1015.5 1015.4 0.0
16/02:00am 13.1 13.8 12.3 95 0.4 CALM 0 0 0 0 1015.7 1015.6 0.0
16/01:56am 13.1 13.8 12.3 95 0.4 CALM 0 0 0 0 1015.7 1015.6 0.0
16/01:30am 13.2 14.0 12.4 95 0.4 CALM 0 0 0 0 1015.8 1015.7 0.0
16/01:24am 13.2 14.0 12.4 95 0.4 CALM 0 0 0 0 1015.8 1015.7 0.0
16/01:12am 13.0 13.7 12.1 94 0.5 CALM 0 0 0 0 1015.9 1015.8 0.0
16/01:02am 12.9 13.5 12.0 94 0.5 CALM 0 0 0 0 1016.0 1015.9 0.0
16/01:00am 12.9 13.5 12.0 94 0.5 CALM 0 0 0 0 1016.0 1015.9 0.0
16/12:30am 12.8 13.4 11.9 94 0.5 CALM 0 0 0 0 1016.3 1016.2 0.0
16/12:05am 12.9 13.5 12.0 94 0.5 CALM 0 0 0 0 1016.4 1016.3 0.0
16/12:00am 13.1 13.8 12.2 94 0.5 CALM 0 0 0 0 1016.4 1016.3 0.0
 
Date/Time
EST
Temp
°C
App
Temp
°C
Dew
Point
°C
Rel
Hum
%
Delta-T
°C
Wind Press
QNH
hPa
Press
MSL
hPa
Rain since
9am
mm
Dir  Spd
km/h
Gust
km/h
Spd
kts
Gust
kts
15/11:30pm 13.0 12.8 11.7 92 0.7 NE 4 7 2 4 1016.6 1016.5 0.0
15/11:00pm 13.0 13.1 11.6 91 0.7 WNW 2 6 1 3 1016.7 1016.6 0.0
15/10:30pm 13.7 14.1 12.4 92 0.7 NNW 2 6 1 3 1016.7 1016.6 0.0
15/10:00pm 14.3 15.2 12.9 91 0.8 CALM 0 0 0 0 1016.7 1016.6 0.0
15/09:58pm 14.2 15.1 12.8 91 0.8 CALM 0 0 0 0 1016.7 1016.6 0.0
15/09:30pm 14.3 15.1 12.7 90 0.9 CALM 0 0 0 0 1016.9 1016.8 0.0
15/09:27pm 14.4 15.3 12.8 90 0.9 CALM 0 0 0 0 1016.9 1016.8 0.0
15/09:00pm 15.1 16.1 13.3 89 1.0 CALM 0 0 0 0 1017.1 1017.0 0.0
15/08:57pm 15.3 16.4 13.5 89 1.0 CALM 0 0 0 0 1017.1 1017.0 0.0
15/08:30pm 16.1 17.5 14.3 89 1.0 CALM 0 0 0 0 1017.0 1016.9 0.0
15/08:00pm 16.4 17.8 14.4 88 1.1 CALM 0 0 0 0 1016.9 1016.8 0.0
15/07:30pm 17.6 19.4 15.4 87 1.3 CALM 0 6 0 3 1016.9 1016.8 0.0
15/07:00pm 18.2 18.9 15.5 84 1.6 N 6 7 3 4 1016.6 1016.5 0.0
15/06:30pm 19.9 21.2 17.1 84 1.7 NNE 6 9 3 5 1016.4 1016.3 0.0
15/06:00pm 20.7 21.5 17.3 81 2.1 NNE 9 11 5 6 1016.1 1016.0 0.0
15/05:30pm 21.9 22.1 16.8 73 3.1 NE 11 17 6 9 1015.8 1015.7 0.0
15/05:00pm 23.6 23.3 16.4 64 4.4 NE 13 19 7 10 1015.5 1015.4 0.0
15/04:30pm 24.8 24.3 16.8 61 4.9 NNE 15 22 8 12 1015.2 1015.1 0.0
15/04:00pm 26.0 25.2 17.1 58 5.5 NE 17 20 9 11 1015.1 1015.0 0.0
15/03:30pm 26.5 25.5 16.7 55 6.1 ENE 17 22 9 12 1015.1 1015.0 0.0
15/03:00pm 27.3 26.8 16.9 53 6.5 ENE 15 24 8 13 1015.0 1014.9 0.0
15/02:30pm 27.5 26.2 15.8 48 7.2 ENE 17 24 9 13 1015.1 1015.0 0.0
15/02:00pm 28.4 27.2 15.0 44 8.1 E 15 22 8 12 1015.2 1015.1 0.0
15/01:30pm 28.3 26.1 10.9 34 9.9 NE 13 20 7 11 1015.7 1015.6 0.0
15/01:00pm 28.1 26.8 11.2 35 9.7 NNE 9 15 5 8 1016.2 1016.1 0.0
15/12:30pm 28.0 27.4 12.4 38 9.1 NNW 7 13 4 7 1016.8 1016.7 0.0
15/12:00pm 27.2 26.1 12.0 38 8.8 NNE 9 17 5 9 1017.4 1017.3 0.0
15/11:30am 26.8 26.3 12.1 40 8.5 NE 6 11 3 6 1017.9 1017.8 0.0
15/11:00am 25.6 25.8 13.1 46 7.3 NW 4 11 2 6 1018.5 1018.5 0.0
15/10:30am 24.8 24.1 12.1 45 7.3 WNW 7 9 4 5 1019.1 1019.1 0.0
15/10:00am 23.1 23.5 13.6 55 5.5 WNW 4 9 2 5 1019.4 1019.4 0.0
15/09:30am 22.3 24.0 15.2 64 4.2 CALM 0 0 0 0 1019.7 1019.7 0.0
15/09:00am 20.2 21.2 16.4 79 2.3 SW 6 7 3 4 1019.7 1019.7 0.2
15/08:30am 17.8 18.7 16.0 89 1.1 S 6 7 3 4 1019.6 1019.6 0.2
15/08:00am 15.6 17.3 15.3 98 0.2 CALM 0 0 0 0 1019.4 1019.4 0.2
15/07:40am 14.7 16.1 14.4 98 0.2 CALM 0 0 0 0 1019.2 1019.2 0.2
15/07:38am 14.5 15.8 14.2 98 0.2 CALM 0 0 0 0 1019.2 1019.2 0.2
15/07:30am 13.7 14.8 13.4 98 0.2 CALM 0 0 0 0 1019.1 1019.1 0.2
15/07:06am 12.3 12.9 11.8 97 0.3 CALM 0 0 0 0 1019.0 1019.0 0.2
15/07:00am 12.1 12.6 11.6 97 0.3 CALM 0 0 0 0 1019.0 1019.0 0.2
15/06:30am 11.4 11.7 10.8 96 0.3 CALM 0 0 0 0 1018.6 1018.6 0.2
15/06:00am 11.5 11.8 10.9 96 0.3 CALM 0 0 0 0 1018.3 1018.3 0.2
15/05:30am 11.2 11.4 10.4 95 0.4 CALM 0 0 0 0 1017.8 1017.7 0.2
15/05:00am 11.1 11.2 10.3 95 0.4 CALM 0 0 0 0 1017.2 1017.1 0.2
15/04:30am 11.0 11.1 10.2 95 0.4 CALM 0 0 0 0 1016.7 1016.6 0.2
15/04:00am 11.7 12.0 10.9 95 0.4 CALM 0 0 0 0 1016.7 1016.6 0.2
15/03:30am 11.9 12.3 11.1 95 0.4 CALM 0 0 0 0 1016.7 1016.6 0.2
15/03:00am 11.7 12.0 10.8 94 0.5 CALM 0 0 0 0 1016.8 1016.7 0.2
15/02:30am 11.9 12.2 11.0 94 0.5 CALM 0 0 0 0 1016.8 1016.7 0.0
15/02:00am 12.0 12.4 11.1 94 0.5 CALM 0 0 0 0 1017.0 1016.9 0.0
15/01:30am 12.1 12.5 11.2 94 0.5 CALM 0 0 0 0 1017.2 1017.1 0.0
15/01:00am 12.2 12.6 11.1 93 0.6 CALM 0 0 0 0 1017.5 1017.4 0.0
15/12:52am 12.1 12.4 11.0 93 0.6 CALM 0 0 0 0 1017.6 1017.5 0.0
15/12:34am 12.3 12.7 11.2 93 0.6 CALM 0 0 0 0 1017.7 1017.6 0.0
15/12:30am 12.5 12.9 11.4 93 0.6 CALM 0 0 0 0 1017.7 1017.6 0.0
15/12:23am 12.5 12.9 11.4 93 0.6 CALM 0 0 0 0 1017.8 1017.7 0.0
15/12:00am 12.6 13.0 11.3 92 0.7 CALM 0 0 0 0 1018.0 1017.9 0.0
 
Date/Time
EST
Temp
°C
App
Temp
°C
Dew
Point
°C
Rel
Hum
%
Delta-T
°C
Wind Press
QNH
hPa
Press
MSL
hPa
Rain since
9am
mm
Dir  Spd
km/h
Gust
km/h
Spd
kts
Gust
kts
14/11:30pm 12.8 13.3 11.5 92 0.7 CALM 0 0 0 0 1018.1 1018.0 0.0
14/11:19pm 12.8 13.3 11.5 92 0.7 CALM 0 0 0 0 1018.2 1018.1 0.0
14/11:00pm 13.0 13.5 11.6 91 0.7 CALM 0 0 0 0 1018.4 1018.4 0.0
14/10:30pm 13.0 13.5 11.6 91 0.7 CALM 0 0 0 0 1018.5 1018.5 0.0
14/10:00pm 14.1 15.0 12.8 92 0.7 CALM 0 0 0 0 1018.4 1018.4 0.0
14/09:30pm 13.8 14.5 12.2 90 0.9 CALM 0 0 0 0 1018.3 1018.3 0.0
14/09:00pm 14.5 15.3 12.7 89 1.0 CALM 0 0 0 0 1018.4 1018.4 0.0
14/08:30pm 15.3 16.4 13.5 89 1.0 CALM 0 0 0 0 1018.5 1018.5 0.0
14/08:00pm 16.0 17.2 13.8 87 1.2 CALM 0 0 0 0 1018.5 1018.5 0.0
14/07:30pm 16.5 17.7 13.8 84 1.5 CALM 0 0 0 0 1018.3 1018.3 0.0
14/07:00pm 17.6 17.8 14.3 81 1.9 N 6 7 3 4 1018.1 1018.0 0.0
14/06:30pm 19.2 19.5 14.9 76 2.5 N 7 9 4 5 1017.9 1017.8 0.0
14/06:00pm 20.6 21.0 15.2 71 3.2 N 7 11 4 6 1017.6 1017.5 0.0
14/05:30pm 21.9 21.9 15.3 66 3.9 N 9 19 5 10 1017.3 1017.2 0.0
14/05:00pm 23.0 22.3 15.3 62 4.6 N 13 19 7 10 1017.0 1016.9 0.0
14/04:30pm 23.9 23.1 16.2 62 4.7 N 15 22 8 12 1016.8 1016.7 0.0
14/04:00pm 24.8 23.6 16.2 58 5.3 N 17 24 9 13 1016.5 1016.4 0.0
14/03:30pm 25.7 25.0 16.5 56 5.7 N 15 20 8 11 1016.5 1016.4 0.0
14/03:00pm 26.0 25.3 16.3 55 6.0 N 15 24 8 13 1016.3 1016.2 0.0
14/02:30pm 26.2 24.8 15.6 52 6.5 NNW 17 24 9 13 1016.6 1016.5 0.0
14/02:00pm 26.8 26.4 15.2 49 7.0 NW 11 17 6 9 1017.0 1016.9 0.0
14/01:30pm 26.7 25.8 14.8 48 7.2 N 13 17 7 9 1017.5 1017.4 0.0
14/01:00pm 26.0 25.1 13.8 47 7.2 NNE 11 17 6 9 1017.8 1017.7 0.0
14/12:30pm 26.1 25.8 13.2 44 7.6 NNE 7 15 4 8 1018.6 1018.6 0.0
14/12:00pm 25.6 25.4 14.7 51 6.5 N 9 20 5 11 1019.0 1019.0 0.0
14/11:30am 24.6 24.3 14.4 53 6.1 N 9 20 5 11 1019.6 1019.6 0.0
14/11:00am 24.5 24.4 14.9 55 5.7 N 9 17 5 9 1020.2 1020.2 0.0
14/10:30am 23.6 23.5 14.9 58 5.2 NNE 9 15 5 8 1020.5 1020.5 0.0
14/10:00am 23.2 23.3 15.5 62 4.6 NW 9 15 5 8 1021.0 1021.0 0.0
14/09:30am 22.3 23.4 16.6 70 3.5 NNW 6 13 3 7 1021.1 1021.1 0.0
14/09:00am 20.8 23.2 17.0 79 2.3 CALM 0 6 0 3 1020.9 1020.9 0.0
14/08:30am 17.8 19.6 15.4 86 1.4 CALM 0 2 0 1 1021.1 1021.1 0.0
14/08:00am 15.5 16.7 14.9 96 0.3 SSW 2 7 1 4 1021.0 1021.0 0.0
14/07:30am 12.7 13.5 12.4 98 0.2 CALM 0 0 0 0 1020.9 1020.9 0.0
14/07:29am 12.5 13.2 12.2 98 0.2 CALM 0 0 0 0 1020.9 1020.9 0.0
14/07:15am 11.5 11.8 11.0 97 0.3 CALM 0 0 0 0 1020.8 1020.8 0.0
14/07:08am 10.9 11.1 10.4 97 0.3 CALM 0 0 0 0 1020.8 1020.8 0.0
14/07:00am 10.3 10.3 9.8 97 0.3 CALM 0 0 0 0 1020.8 1020.8 0.0
14/06:53am 10.1 10.0 9.5 96 0.3 CALM 0 0 0 0 1020.8 1020.8 0.0
14/06:30am 9.8 9.6 9.2 96 0.3 CALM 0 0 0 0 1020.7 1020.7 0.0
14/06:00am 9.5 9.3 8.9 96 0.3 CALM 0 0 0 0 1020.3 1020.3 0.0
14/05:30am 9.4 9.1 8.6 95 0.4 CALM 0 0 0 0 1020.0 1020.0 0.0
14/05:00am 9.3 9.0 8.5 95 0.4 CALM 0 0 0 0 1019.5 1019.5 0.0
14/04:30am 9.3 9.0 8.5 95 0.4 CALM 0 0 0 0 1019.3 1019.3 0.0
14/04:02am 9.1 8.7 8.3 95 0.4 CALM 0 0 0 0 1019.2 1019.2 0.0
14/04:00am 9.2 8.8 8.4 95 0.4 CALM 0 0 0 0 1019.2 1019.2 0.0
14/03:37am 9.5 9.2 8.7 95 0.4 CALM 0 0 0 0 1019.3 1019.3 0.0
14/03:30am 9.5 9.2 8.7 95 0.4 CALM 0 0 0 0 1019.3 1019.3 0.0
14/03:00am 9.4 9.1 8.6 95 0.4 CALM 0 0 0 0 1019.4 1019.4 0.0
14/02:32am 9.1 8.7 8.2 94 0.4 CALM 0 0 0 0 1019.6 1019.6 0.0
14/02:30am 9.0 8.6 8.1 94 0.4 CALM 0 0 0 0 1019.7 1019.7 0.0
14/02:22am 8.8 8.3 7.7 93 0.5 CALM 0 0 0 0 1019.7 1019.7 0.0
14/02:00am 9.3 8.2 8.4 94 0.4 W 4 7 2 4 1019.8 1019.8 0.0
14/01:30am 9.0 8.5 7.9 93 0.5 CALM 0 4 0 2 1020.0 1020.0 0.0
14/01:00am 9.3 8.9 8.2 93 0.5 CALM 0 0 0 0 1020.3 1020.3 0.0
14/12:30am 9.1 8.6 8.0 93 0.5 CALM 0 0 0 0 1020.4 1020.4 0.0
14/12:00am 9.3 8.9 8.1 92 0.6 CALM 0 0 0 0 1020.3 1020.3 0.0
 
Date/Time
EST
Temp
°C
App
Temp
°C
Dew
Point
°C
Rel
Hum
%
Delta-T
°C
Wind Press
QNH
hPa
Press
MSL
hPa
Rain since
9am
mm
Dir  Spd
km/h
Gust
km/h
Spd
kts
Gust
kts
13/11:30pm 9.4 8.9 8.0 91 0.7 CALM 0 0 0 0 1020.5 1020.5 0.0
13/11:00pm 10.1 9.9 8.9 92 0.6 CALM 0 0 0 0 1020.6 1020.6 0.0

Other Formats:

Comma delimited format used in spreadsheet applications
http://www.bom.gov.au/fwo/IDQ60801/IDQ60801.94370.axf

JavaScript Object Notation format (JSON) in row-major order
http://www.bom.gov.au/fwo/IDQ60801/IDQ60801.94370.json